Latest Coastal Weather Observations for Lady Elliot Island

IDQ60701

Issued at 3:32 pm EST Friday 26 May 2017 (issued every 10 minutes, with the page automatically refreshed every 10 minutes)

About coastal observations | Map of coastal stations | Coastal observations for QLD | Marine services | Other Formats
Station Details ID: 039059 Name: LADY ELLIOT ISLAND Lat: -24.11 Lon: 152.72 Height: 3.6 m
Data from the previous 72 hours. | See also: Recent months at Lady Elliot Island
Date/Time
EST
Temp
°C
Wind Pressure Rain since
9am
mm
Weather Cloud Vis
km
Sea
Height
m
Swell
Dir  Spd
kts
Gust
kts
hPa Trend Height
m
Period
s
Dir
26/03:30pm 23.7 ESE 10 13 1017.0 - 0.0 - - - - - - -
26/03:00pm 24.0 ESE 11 14 1016.9 - 0.0 - - - - - - -
26/02:30pm 23.9 SE 10 12 1017.1 - 0.0 - - - - - - -
26/02:00pm 24.1 SSE 9 13 1017.3 - 0.0 - - - - - - -
26/01:30pm 23.9 SSE 10 15 1017.5 - 0.0 - - - - - - -
26/01:00pm 24.4 SSE 11 16 1017.7 - 0.0 - - - - - - -
26/12:30pm 24.8 SE 11 16 1018.1 - 0.0 - - - - - - -
26/12:00pm 24.8 SE 11 15 1018.7 - 0.0 - - - - - - -
26/11:30am 24.6 SE 11 14 1019.1 - 0.0 - - - - - - -
26/11:00am 24.8 SE 12 15 1019.5 - 0.0 - - - - - - -
26/10:30am 24.5 SE 12 16 1019.6 - 0.0 - - - - - - -
26/10:00am 24.3 ESE 13 16 1019.8 - 0.0 - - - - - - -
26/09:30am 24.1 ESE 13 16 1019.8 - 0.0 - - - - - - -
26/09:00am 23.7 SE 11 15 1019.8 - 0.0 - - - - - - -
26/08:30am 23.6 SE 11 15 1019.6 - 0.0 - - - - - - -
26/08:00am 23.2 SE 12 15 1019.3 - 0.0 - - - - - - -
26/07:30am 23.0 SE 13 16 1018.9 - 0.0 - - - - - - -
26/07:00am 22.5 SE 13 17 1018.7 - 0.0 - - - - - - -
26/06:30am 22.6 SE 13 16 1018.3 - 0.0 - - - - - - -
26/06:00am 22.6 SE 12 16 1017.8 - 0.0 - - - - - - -
26/05:30am 22.2 SE 13 16 1017.7 - 0.0 - - - - - - -
26/05:00am 21.8 SE 9 13 1017.5 - 0.0 - - - - - - -
26/04:30am 22.0 SE 12 16 1017.2 - 0.0 - - - - - - -
26/04:00am 22.1 SE 9 13 1017.1 - 0.0 - - - - - - -
26/03:30am 22.2 SSE 9 14 1017.2 - 0.0 - - - - - - -
26/03:00am 22.3 SE 9 12 1017.4 - 0.0 - - - - - - -
26/02:30am 22.2 SSE 10 14 1017.4 - 0.0 - - - - - - -
26/02:00am 22.3 SSE 10 13 1017.5 - 0.0 - - - - - - -
26/01:30am 22.6 SSE 11 15 1017.6 - 0.0 - - - - - - -
26/01:00am 22.5 SE 10 13 1018.0 - 0.0 - - - - - - -
26/12:30am 22.9 SE 12 16 1018.2 - 0.0 - - - - - - -
26/12:00am 22.7 SSE 11 15 1018.4 - 0.0 - - - - - - -
 
Date/Time
EST
Temp
°C
Wind Pressure Rain since
9am
mm
Weather Cloud Vis
km
Sea
Height
m
Swell
Dir  Spd
kts
Gust
kts
hPa Trend Height
m
Period
s
Dir
25/11:30pm 22.9 SSE 11 16 1018.6 - 0.0 - - - - - - -
25/11:00pm 23.0 SSE 10 14 1018.7 - 0.0 - - - - - - -
25/10:30pm 23.0 SSE 9 13 1018.7 - 0.0 - - - - - - -
25/10:00pm 22.4 SSE 7 12 1018.8 - 0.0 - - - - - - -
25/09:30pm 22.4 SSE 8 13 1018.8 - 0.0 - - - - - - -
25/09:00pm 22.3 SSE 9 12 1018.7 - 0.0 - - - - - - -
25/08:30pm 22.6 SE 11 14 1018.6 - 0.0 - - - - - - -
25/08:00pm 22.6 SE 11 14 1018.4 - 0.0 - - - - - - -
25/07:30pm 22.8 SE 12 15 1018.3 - 0.0 - - - - - - -
25/07:00pm 22.7 SSE 10 13 1017.9 - 0.0 - - - - - - -
25/06:30pm 22.8 SSE 8 12 1017.6 - 0.0 - - - - - - -
25/06:00pm 22.8 SSE 9 13 1017.2 - 0.0 - - - - - - -
25/05:30pm 22.7 SSE 7 11 1017.0 - 0.0 - - - - - - -
25/05:00pm 22.8 S 7 10 1016.7 - 0.0 - - - - - - -
25/04:30pm 23.2 S 6 9 1016.4 - 0.0 - - - - - - -
25/04:00pm 23.8 S 6 9 1016.3 - 0.0 - - - - - - -
25/03:30pm 24.0 S 7 11 1016.2 - 0.0 - - - - - - -
25/03:00pm 24.4 S 7 11 1016.1 - 0.0 - - - - - - -
25/02:30pm 24.9 S 8 10 1016.3 - 0.0 - - - - - - -
25/02:00pm 24.7 S 10 13 1016.4 - 0.0 - - - - - - -
25/01:30pm 24.8 S 9 13 1016.6 - 0.0 - - - - - - -
25/01:00pm 24.5 S 10 14 1017.0 - 0.0 - - - - - - -
25/12:30pm 23.9 S 11 15 1017.5 - 0.0 - - - - - - -
25/12:00pm 24.1 S 11 15 1017.9 - 0.0 - - - - - - -
25/11:30am 23.8 S 12 16 1018.2 - 0.0 - - - - - - -
25/11:00am 23.9 S 11 16 1018.5 - 0.0 - - - - - - -
25/10:30am 23.7 S 11 15 1018.6 - 0.0 - - - - - - -
25/10:00am 23.3 SSW 11 16 1018.8 - 0.0 - - - - - - -
25/09:30am 23.5 SSW 9 14 1018.9 - 0.0 - - - - - - -
25/09:00am 23.6 SW 7 10 1018.7 - 0.0 - - - - - - -
25/08:30am 23.8 SW 8 12 1018.5 - 0.0 - - - - - - -
25/08:00am 23.5 WSW 7 10 1018.2 - 0.0 - - - - - - -
25/07:30am 23.0 W 6 11 1017.9 - 0.0 - - - - - - -
25/07:00am 22.5 WNW 7 9 1017.6 - 0.0 - - - - - - -
25/06:30am 22.2 WNW 7 10 1017.2 - 0.0 - - - - - - -
25/06:00am 22.2 WNW 7 11 1016.8 - 0.0 - - - - - - -
25/05:30am 22.2 W 7 11 1016.6 - 0.0 - - - - - - -
25/05:00am 22.3 W 7 10 1016.4 - 0.0 - - - - - - -
25/04:30am 22.3 W 7 10 1016.2 - 0.0 - - - - - - -
25/04:00am 22.1 WNW 7 10 1016.1 - 0.0 - - - - - - -
25/03:30am 21.9 WNW 6 9 1016.2 - 0.0 - - - - - - -
25/03:00am 21.8 NW 6 9 1016.2 - 0.0 - - - - - - -
25/02:30am 21.8 NW 5 8 1016.3 - 0.0 - - - - - - -
25/02:00am 21.7 NW 5 7 1016.4 - 0.0 - - - - - - -
25/01:30am 22.0 NW 6 9 1016.7 - 0.0 - - - - - - -
25/01:00am 21.8 NW 6 8 1017.0 - 0.0 - - - - - - -
25/12:30am 21.9 NW 5 8 1017.1 - 0.0 - - - - - - -
25/12:00am 21.6 NW 5 7 1017.3 - 0.0 - - - - - - -
 
Date/Time
EST
Temp
°C
Wind Pressure Rain since
9am
mm
Weather Cloud Vis
km
Sea
Height
m
Swell
Dir  Spd
kts
Gust
kts
hPa Trend Height
m
Period
s
Dir
24/11:30pm 21.5 NW 4 6 1017.4 - 0.0 - - - - - - -
24/11:00pm 20.3 NNW 4 5 1017.6 - 0.0 - - - - - - -
24/10:30pm 19.4 N 2 4 1017.9 - 0.0 - - - - - - -
24/10:00pm 20.6 NNW 4 5 1018.1 - 0.0 - - - - - - -
24/09:30pm 20.3 NNW 2 5 1018.0 - 0.0 - - - - - - -
24/09:00pm 21.4 N 3 5 1018.1 - 0.0 - - - - - - -
24/08:30pm 21.7 NNE 3 5 1018.1 - 0.0 - - - - - - -
24/08:00pm 21.4 NE 1 5 1017.9 - 0.0 - - - - - - -
24/07:30pm 21.1 ENE 3 5 1017.9 - 0.0 - - - - - - -
24/07:00pm 20.8 CALM 0 3 1017.6 - 0.0 - - - - - - -
24/06:30pm 20.4 ENE 3 5 1017.5 - 0.0 - - - - - - -
24/06:00pm 19.2 CALM 0 0 1017.4 - 0.0 - - - - - - -
24/05:30pm 21.1 E 2 4 1017.3 - 0.0 - - - - - - -
24/05:00pm 22.2 CALM 0 0 1017.2 - 0.0 - - - - - - -
24/04:30pm 22.9 SE 3 4 1016.9 - 0.0 - - - - - - -
24/04:00pm 23.8 SSE 3 5 1016.8 - 0.0 - - - - - - -
24/03:30pm 23.9 S 4 7 1016.8 - 0.0 - - - - - - -
24/03:00pm 23.9 SSE 5 7 1016.7 - 0.0 - - - - - - -
24/02:30pm 24.0 SSE 5 7 1016.7 - 0.0 - - - - - - -
24/02:00pm 24.2 S 6 8 1016.7 - 0.0 - - - - - - -
24/01:30pm 24.0 S 7 9 1017.1 - 0.0 - - - - - - -
24/01:00pm 24.3 S 7 9 1017.5 - 0.0 - - - - - - -
24/12:30pm 24.0 S 8 11 1017.9 - 0.0 - - - - - - -
24/12:00pm 23.7 S 8 11 1018.2 - 0.0 - - - - - - -
24/11:30am 24.0 S 8 11 1018.7 - 0.0 - - - - - - -
24/11:00am 24.5 S 7 11 1019.2 - 0.0 - - - - - - -
24/10:30am 24.2 S 8 12 1019.6 - 0.0 - - - - - - -
24/10:00am 24.2 SSE 8 10 1019.9 - 0.0 - - - - - - -
24/09:30am 24.2 SSE 7 10 1020.0 - 0.0 - - - - - - -
24/09:00am 23.5 SSE 7 10 1019.8 - 0.0 - - - - - - -
24/08:30am 23.8 SSE 7 11 1019.8 - 0.0 - - - - - - -
24/08:00am 23.5 SSE 7 10 1019.5 - 0.0 - - - - - - -
24/07:30am 22.8 SSE 8 11 1019.2 - 0.0 - - - - - - -
24/07:00am 22.7 SSE 8 11 1018.9 - 0.0 - - - - - - -
24/06:30am 22.2 SSE 7 11 1018.6 - 0.0 - - - - - - -
24/06:00am 22.4 SE 9 13 1018.5 - 0.0 - - - - - - -
24/05:30am 22.4 SE 10 13 1018.2 - 0.0 - - - - - - -
24/05:00am 22.4 SE 9 11 1017.8 - 0.0 - - - - - - -
24/04:30am 22.6 SSE 9 12 1017.7 - 0.0 - - - - - - -
24/04:00am 22.6 SE 11 15 1017.7 - 0.0 - - - - - - -
24/03:30am 22.7 SE 11 14 1017.8 - 0.0 - - - - - - -
24/03:00am 22.8 SE 12 16 1017.8 - 0.0 - - - - - - -
24/02:30am 22.8 SE 12 16 1017.9 - 0.0 - - - - - - -
24/02:00am 22.8 SE 12 15 1018.1 - 0.0 - - - - - - -
24/01:30am 22.7 SE 13 16 1018.2 - 0.0 - - - - - - -
24/01:00am 22.9 SE 12 15 1018.4 - 0.0 - - - - - - -
24/12:30am 22.8 SE 12 16 1018.5 - 0.0 - - - - - - -
24/12:00am 22.8 SE 13 16 1018.7 - 0.0 - - - - - - -
 
Date/Time
EST
Temp
°C
Wind Pressure Rain since
9am
mm
Weather Cloud Vis
km
Sea
Height
m
Swell
Dir  Spd
kts
Gust
kts
hPa Trend Height
m
Period
s
Dir
23/11:30pm 22.8 SE 12 16 1019.1 - 0.0 - - - - - - -
23/11:00pm 23.0 SE 13 16 1019.4 - 0.0 - - - - - - -
23/10:30pm 23.0 SE 12 16 1019.4 - 0.0 - - - - - - -
23/10:00pm 23.2 SE 11 15 1019.3 - 0.0 - - - - - - -
23/09:30pm 23.0 SE 11 14 1019.2 - 0.0 - - - - - - -
23/09:00pm 23.0 SE 11 14 1019.1 - 0.0 - - - - - - -
23/08:30pm 23.1 SE 11 15 1019.2 - 0.0 - - - - - - -
23/08:00pm 23.1 SE 12 15 1019.2 - 0.0 - - - - - - -
23/07:30pm 23.4 SE 13 15 1019.1 - 0.0 - - - - - - -
23/07:00pm 23.4 SE 14 17 1019.0 - 0.0 - - - - - - -
23/06:30pm 23.3 SE 13 16 1018.7 - 0.0 - - - - - - -
23/06:00pm 23.3 SE 14 17 1018.5 - 0.0 - - - - - - -
23/05:30pm 23.3 SE 12 16 1018.3 - 0.0 - - - - - - -
23/05:00pm 23.4 SE 9 13 1018.1 - 0.0 - - - - - - -
23/04:30pm 23.3 SE 9 11 1018.0 - 0.0 - - - - - - -
23/04:00pm 23.8 SSE 7 11 1017.7 - 0.0 - - - - - - -

Other Formats:

Comma delimited format used in spreadsheet applications
http://www.bom.gov.au/fwo/IDQ60701/IDQ60701.94388.axf

JavaScript Object Notation format (JSON) in row-major order
http://www.bom.gov.au/fwo/IDQ60701/IDQ60701.94388.json